DFPAG EDDG-EDDG
Flight info
| Callsign | DFPAG |
|---|---|
| Flight time | 0h 14m |
| Altitude | |
| Route | |
| Aircraft | TBM9 |
Departure
| Time | 2026-04-10 15:11 |
|---|---|
| Airport | Münster Osnabrück Airport (EDDG) |
Arrival
| Time | 2026-04-10 15:26 |
|---|---|
| Airport | Münster Osnabrück Airport (EDDG) |
| Time | Latitude | Longitude | Altitude | Speed | Heading |
|---|---|---|---|---|---|
| 2026-04-10 15:06 | 52.13110 | 7.68659 | 162 ft | 0 kts | 181° |
| 2026-04-10 15:07 | 52.13099 | 7.68657 | 162 ft | 0 kts | 202° |
| 2026-04-10 15:07 | 52.13100 | 7.68626 | 162 ft | 10 kts | 292° |
| 2026-04-10 15:07 | 52.13105 | 7.68493 | 161 ft | 12 kts | 270° |
| 2026-04-10 15:08 | 52.13123 | 7.68400 | 161 ft | 1 kts | 335° |
| 2026-04-10 15:08 | 52.13151 | 7.68382 | 161 ft | 11 kts | 338° |
| 2026-04-10 15:08 | 52.13236 | 7.68345 | 161 ft | 14 kts | 5° |
| 2026-04-10 15:08 | 52.13287 | 7.68474 | 162 ft | 16 kts | 72° |
| 2026-04-10 15:09 | 52.13332 | 7.68684 | 162 ft | 23 kts | 71° |
| 2026-04-10 15:09 | 52.13386 | 7.68954 | 162 ft | 28 kts | 71° |
| 2026-04-10 15:09 | 52.13456 | 7.69269 | 162 ft | 31 kts | 71° |
| 2026-04-10 15:09 | 52.13527 | 7.69606 | 163 ft | 32 kts | 70° |
| 2026-04-10 15:10 | 52.13580 | 7.69853 | 163 ft | 10 kts | 75° |
| 2026-04-10 15:10 | 52.13602 | 7.69960 | 163 ft | 12 kts | 58° |
| 2026-04-10 15:10 | 52.13671 | 7.70034 | 163 ft | 13 kts | 7° |
| 2026-04-10 15:10 | 52.13765 | 7.69987 | 161 ft | 14 kts | 318° |
| 2026-04-10 15:11 | 52.13760 | 7.69881 | 163 ft | 18 kts | 249° |
| 2026-04-10 15:11 | 52.13664 | 7.69429 | 164 ft | 75 kts | 250° |
| 2026-04-10 15:11 | 52.13426 | 7.68411 | 451 ft | 107 kts | 251° |
| 2026-04-10 15:11 | 52.13178 | 7.67227 | 1082 ft | 111 kts | 252° |
| 2026-04-10 15:12 | 52.12915 | 7.65900 | 1234 ft | 133 kts | 256° |
| 2026-04-10 15:12 | 52.12637 | 7.64312 | 1030 ft | 153 kts | 256° |
| 2026-04-10 15:12 | 52.12528 | 7.62580 | 961 ft | 154 kts | 281° |
| 2026-04-10 15:12 | 52.13069 | 7.61089 | 785 ft | 161 kts | 323° |
| 2026-04-10 15:13 | 52.14074 | 7.60788 | 903 ft | 145 kts | 14° |
| 2026-04-10 15:13 | 52.14814 | 7.61897 | 1039 ft | 154 kts | 65° |
| 2026-04-10 15:13 | 52.15104 | 7.63619 | 1109 ft | 159 kts | 79° |
| 2026-04-10 15:13 | 52.15341 | 7.65390 | 1223 ft | 159 kts | 79° |
| 2026-04-10 15:14 | 52.15571 | 7.67144 | 1252 ft | 157 kts | 79° |
| 2026-04-10 15:14 | 52.15787 | 7.68903 | 1263 ft | 160 kts | 75° |
| 2026-04-10 15:14 | 52.16058 | 7.70557 | 1125 ft | 146 kts | 75° |
| 2026-04-10 15:14 | 52.16310 | 7.72083 | 1158 ft | 131 kts | 76° |
| 2026-04-10 15:15 | 52.16319 | 7.73417 | 1140 ft | 120 kts | 117° |
| 2026-04-10 15:15 | 52.15684 | 7.74127 | 892 ft | 107 kts | 191° |
| 2026-04-10 15:15 | 52.15087 | 7.73553 | 649 ft | 97 kts | 220° |
| 2026-04-10 15:15 | 52.14536 | 7.72886 | 547 ft | 99 kts | 225° |
| 2026-04-10 15:16 | 52.14195 | 7.71908 | 487 ft | 105 kts | 246° |
| 2026-04-10 15:16 | 52.13957 | 7.70822 | 346 ft | 101 kts | 253° |
| 2026-04-10 15:16 | 52.13722 | 7.69696 | 215 ft | 102 kts | 253° |
| 2026-04-10 15:16 | 52.13513 | 7.68710 | 163 ft | 81 kts | 253° |
| 2026-04-10 15:17 | 52.13313 | 7.67799 | 246 ft | 100 kts | 250° |
| 2026-04-10 15:17 | 52.13031 | 7.66655 | 810 ft | 113 kts | 249° |
| 2026-04-10 15:17 | 52.12745 | 7.65401 | 1184 ft | 129 kts | 265° |
| 2026-04-10 15:17 | 52.13045 | 7.64026 | 1231 ft | 139 kts | 313° |
| 2026-04-10 15:18 | 52.13922 | 7.63418 | 1234 ft | 146 kts | 354° |
| 2026-04-10 15:18 | 52.14905 | 7.63920 | 1111 ft | 155 kts | 33° |
| 2026-04-10 15:18 | 52.15600 | 7.65182 | 1172 ft | 153 kts | 60° |
| 2026-04-10 15:18 | 52.15798 | 7.66899 | 1135 ft | 158 kts | 85° |
| 2026-04-10 15:19 | 52.15948 | 7.68609 | 1131 ft | 154 kts | 79° |
| 2026-04-10 15:19 | 52.16152 | 7.70307 | 1082 ft | 145 kts | 80° |
| 2026-04-10 15:19 | 52.16170 | 7.71786 | 1028 ft | 122 kts | 117° |
| 2026-04-10 15:19 | 52.15578 | 7.72601 | 791 ft | 109 kts | 172° |
| 2026-04-10 15:20 | 52.14830 | 7.72748 | 609 ft | 103 kts | 189° |
| 2026-04-10 15:20 | 52.14334 | 7.72331 | 474 ft | 77 kts | 242° |
| 2026-04-10 15:20 | 52.14107 | 7.71496 | 414 ft | 82 kts | 251° |
| 2026-04-10 15:20 | 52.13921 | 7.70633 | 325 ft | 82 kts | 251° |
| 2026-04-10 15:21 | 52.13732 | 7.69741 | 231 ft | 87 kts | 252° |
| 2026-04-10 15:21 | 52.13534 | 7.68818 | 208 ft | 83 kts | 253° |
| 2026-04-10 15:21 | 52.13349 | 7.67948 | 225 ft | 80 kts | 251° |
| 2026-04-10 15:21 | 52.13117 | 7.66929 | 598 ft | 104 kts | 249° |
| 2026-04-10 15:22 | 52.12850 | 7.65715 | 1061 ft | 132 kts | 251° |
| 2026-04-10 15:22 | 52.12579 | 7.64119 | 1440 ft | 155 kts | 266° |
| 2026-04-10 15:22 | 52.12786 | 7.62381 | 1804 ft | 157 kts | 288° |
| 2026-04-10 15:22 | 52.13144 | 7.60715 | 2062 ft | 157 kts | 289° |
| 2026-04-10 15:23 | 52.13525 | 7.59044 | 2094 ft | 154 kts | 283° |
| 2026-04-10 15:23 | 52.13358 | 7.57422 | 2062 ft | 150 kts | 243° |
| 2026-04-10 15:23 | 52.12540 | 7.56404 | 1974 ft | 154 kts | 201° |
| 2026-04-10 15:23 | 52.11490 | 7.56517 | 1939 ft | 156 kts | 164° |
| 2026-04-10 15:24 | 52.10856 | 7.57837 | 1783 ft | 153 kts | 94° |
| 2026-04-10 15:24 | 52.11253 | 7.59306 | 1552 ft | 136 kts | 40° |
| 2026-04-10 15:24 | 52.11803 | 7.60455 | 1294 ft | 130 kts | 69° |
| 2026-04-10 15:24 | 52.12048 | 7.61867 | 1013 ft | 132 kts | 71° |
| 2026-04-10 15:25 | 52.12343 | 7.63234 | 728 ft | 126 kts | 71° |
| 2026-04-10 15:25 | 52.12610 | 7.64462 | 597 ft | 100 kts | 72° |
| 2026-04-10 15:25 | 52.12821 | 7.65474 | 435 ft | 96 kts | 69° |
| 2026-04-10 15:25 | 52.13042 | 7.66485 | 271 ft | 96 kts | 70° |
| 2026-04-10 15:26 | 52.13256 | 7.67499 | 168 ft | 90 kts | 71° |
| 2026-04-10 15:26 | 52.13405 | 7.68205 | 162 ft | 12 kts | 91° |
| 2026-04-10 15:26 | 52.13361 | 7.68259 | 162 ft | 11 kts | 146° |
| 2026-04-10 15:26 | 52.13276 | 7.68307 | 161 ft | 14 kts | 158° |
| 2026-04-10 15:27 | 52.13213 | 7.68346 | 161 ft | 15 kts | 157° |
| 2026-04-10 15:27 | 52.13151 | 7.68380 | 161 ft | 5 kts | 163° |
| 2026-04-10 15:27 | 52.13104 | 7.68437 | 161 ft | 12 kts | 96° |
| 2026-04-10 15:27 | 52.13103 | 7.68588 | 161 ft | 14 kts | 92° |
| 2026-04-10 15:28 | 52.13103 | 7.68638 | 162 ft | 5 kts | 95° |
| 2026-04-10 15:28 | 52.13103 | 7.68725 | 162 ft | 9 kts | 66° |
| 2026-04-10 15:28 | 52.13124 | 7.68687 | 162 ft | 8 kts | 266° |
| 2026-04-10 15:28 | 52.13124 | 7.68628 | 162 ft | 3 kts | 272° |
| 2026-04-10 15:29 | 52.13114 | 7.68592 | 161 ft | 2 kts | 154° |
| 2026-04-10 15:29 | 52.13111 | 7.68593 | 161 ft | 0 kts | 184° |